Time;durP1;ratioP1;P1;durP2;ratioP2;P2;SDS_P1;SDS_P2;PMS_P1;PMS_P2;Temp;Humidity;BMP_temperature;BMP_pressure;BME280_temperature;BME280_humidity;BME280_pressure;Samples;Min_cycle;Max_cycle;Signal;HPM_P1;HPM_P2
2022/12/13 00:01:45;;;;;;;1999.90;999.90;;;;;;;-2.84;100.00;97598.09;5050493;28;20025;-75
2022/12/13 00:04:12;;;;;;;1999.90;999.90;;;;;;;-2.85;100.00;97601.00;5050415;28;20059;-75
2022/12/13 00:06:37;;;;;;;1999.90;999.90;;;;;;;-2.88;100.00;97601.44;5050714;28;20089;-74
2022/12/13 00:09:04;;;;;;;1999.90;999.90;;;;;;;-2.81;100.00;97607.53;5050455;28;20064;-74
2022/12/13 00:11:30;;;;;;;1999.90;999.90;;;;;;;-2.77;100.00;97598.03;5050002;28;20032;-76
2022/12/13 00:13:55;;;;;;;1999.90;999.90;;;;;;;-2.82;100.00;97587.19;5050246;28;20028;-75
2022/12/13 00:16:23;;;;;;;1999.90;999.90;;;;;;;-2.78;100.00;97596.38;5050719;28;20029;-75
2022/12/13 00:18:51;;;;;;;1999.90;999.90;;;;;;;-2.79;100.00;97600.13;5050420;28;20143;-75
2022/12/13 00:21:19;;;;;;;1999.90;999.90;;;;;;;-2.79;100.00;97598.25;5050256;28;20551;-75
2022/12/13 00:23:46;;;;;;;1999.90;999.90;;;;;;;-2.74;100.00;97589.56;5050234;28;20033;-75
2022/12/13 00:26:14;;;;;;;1999.90;999.90;;;;;;;-2.82;100.00;97595.22;5050163;28;20033;-75
2022/12/13 00:28:39;;;;;;;1999.90;999.90;;;;;;;-2.80;100.00;97601.16;5050169;28;20032;-74
2022/12/13 00:31:06;;;;;;;1999.90;999.90;;;;;;;-2.74;100.00;97605.63;5050286;28;20029;-75
2022/12/13 00:33:31;;;;;;;1999.90;999.90;;;;;;;-2.60;100.00;97600.97;5050231;28;20072;-75
2022/12/13 00:35:57;;;;;;;1999.90;999.90;;;;;;;-2.56;100.00;97594.94;5050539;28;20029;-75
2022/12/13 00:38:23;;;;;;;1999.90;999.90;;;;;;;-2.57;100.00;97601.34;5050129;28;20035;-75
2022/12/13 00:40:48;;;;;;;1999.90;999.90;;;;;;;-2.50;100.00;97604.75;5049997;28;20033;-75
2022/12/13 00:43:14;;;;;;;1999.90;999.90;;;;;;;-2.47;100.00;97600.81;5049984;28;20025;-75
2022/12/13 00:45:40;;;;;;;1999.90;999.90;;;;;;;-2.51;100.00;97602.31;5049887;28;20028;-75
2022/12/13 00:48:05;;;;;;;1999.90;999.90;;;;;;;-2.50;100.00;97603.94;5050054;28;20475;-75
2022/12/13 00:50:31;;;;;;;1999.90;999.90;;;;;;;-2.43;100.00;97607.38;5049996;28;20036;-75
2022/12/13 00:52:58;;;;;;;1999.90;999.90;;;;;;;-2.56;100.00;97594.94;5050215;28;20045;-74
2022/12/13 00:55:23;;;;;;;1999.90;999.90;;;;;;;-2.58;100.00;97613.09;5049873;28;20033;-74
2022/12/13 00:57:49;;;;;;;1999.90;999.90;;;;;;;-2.62;100.00;97606.53;5049949;28;20075;-74
2022/12/13 01:00:14;;;;;;;1999.90;999.90;;;;;;;-2.37;100.00;97601.97;5049850;28;20085;-75
2022/12/13 01:02:40;;;;;;;1999.90;999.90;;;;;;;-2.48;100.00;97602.72;5049781;28;20025;-74
2022/12/13 01:05:06;;;;;;;1999.90;999.90;;;;;;;-2.69;100.00;97603.09;5050288;28;20041;-75
2022/12/13 01:07:31;;;;;;;1999.90;999.90;;;;;;;-2.84;100.00;97602.63;5049628;28;20021;-74
2022/12/13 01:09:57;;;;;;;1999.90;999.90;;;;;;;-2.80;100.00;97601.16;5049837;28;20033;-75
2022/12/13 01:12:22;;;;;;;1999.90;999.90;;;;;;;-2.67;100.00;97595.69;5049922;28;20029;-75
2022/12/13 01:14:48;;;;;;;1999.90;999.90;;;;;;;-2.80;100.00;97598.47;5049849;28;20436;-75
2022/12/13 01:17:13;;;;;;;1999.90;999.90;;;;;;;-2.69;100.00;97605.78;5049610;28;20455;-75
2022/12/13 01:19:38;;;;;;;1999.90;999.90;;;;;;;-2.82;100.00;97597.88;5049873;28;20047;-75
2022/12/13 01:22:06;;;;;;;1999.90;999.90;;;;;;;-2.79;100.00;97605.47;5050400;28;20465;-75
2022/12/13 01:24:32;;;;;;;1999.90;999.90;;;;;;;-2.90;100.00;97606.16;5053357;28;20090;-74
2022/12/13 01:26:57;;;;;;;1999.90;999.90;;;;;;;-3.08;100.00;97598.09;5053108;28;20526;-75
2022/12/13 01:29:24;;;;;;;1999.90;999.90;;;;;;;-3.03;100.00;97600.94;5055235;28;20489;-75
2022/12/13 01:31:49;;;;;;;1999.90;999.90;;;;;;;-3.11;100.00;97596.69;5053193;28;20072;-75
2022/12/13 01:34:18;;;;;;;1999.90;999.90;;;;;;;-3.07;100.00;97592.50;5053213;28;20056;-75
2022/12/13 01:36:46;;;;;;;1999.90;999.90;;;;;;;-3.12;100.00;97589.69;5053551;28;20069;-74
2022/12/13 01:39:18;;;;;;;1999.90;999.90;;;;;;;-3.04;100.00;97593.97;5053086;28;20020;-75
2022/12/13 01:41:47;;;;;;;1999.90;999.90;;;;;;;-3.03;100.00;97599.06;5053152;28;20025;-75
2022/12/13 01:44:56;;;;;;;1999.90;999.90;;;;;;;-3.04;100.00;97599.31;5053141;28;20017;-75
2022/12/13 01:47:31;;;;;;;1999.90;999.90;;;;;;;-3.02;100.00;97594.56;5042975;28;20129;-74
2022/12/13 01:50:00;;;;;;;1999.90;999.90;;;;;;;-3.01;100.00;97590.84;5052856;28;20052;-75
2022/12/13 01:52:28;;;;;;;1999.90;999.90;;;;;;;-3.18;100.00;97574.50;5051373;28;20373;-75
2022/12/13 01:54:57;;;;;;;1999.90;999.90;;;;;;;-2.96;100.00;97593.69;5052716;28;20478;-75
2022/12/13 01:57:24;;;;;;;1999.90;999.90;;;;;;;-2.96;100.00;97588.31;5052724;28;20041;-75
2022/12/13 01:59:50;;;;;;;1999.90;999.90;;;;;;;-2.92;100.00;97584.19;5052603;28;20040;-75
2022/12/13 02:02:15;;;;;;;1999.90;999.90;;;;;;;-2.88;100.00;97583.50;5051422;28;20732;-75
2022/12/13 02:04:52;;;;;;;1999.90;999.90;;;;;;;-2.99;100.00;97594.09;5052626;28;20056;-74
2022/12/13 02:07:23;;;;;;;1999.90;999.90;;;;;;;-3.01;100.00;97580.16;5052669;28;20063;-75
2022/12/13 02:09:51;;;;;;;1999.90;999.90;;;;;;;-3.05;100.00;97586.97;5052558;28;20104;-75
2022/12/13 02:12:17;;;;;;;1999.90;999.90;;;;;;;-3.25;100.00;97584.44;5052497;28;20033;-75
2022/12/13 02:14:43;;;;;;;1999.90;999.90;;;;;;;-3.18;100.00;97587.06;5052601;28;20138;-76
2022/12/13 02:17:21;;;;;;;1999.90;999.90;;;;;;;-3.19;100.00;97582.75;5052512;28;20024;-75
2022/12/13 02:20:05;;;;;;;1999.90;999.90;;;;;;;-3.10;100.00;97587.59;5051994;28;20065;-76
2022/12/13 02:22:58;;;;;;;1999.90;999.90;;;;;;;-3.06;100.00;97582.63;5052391;28;20398;-74
2022/12/13 02:26:09;;;;;;;1999.90;999.90;;;;;;;-3.05;100.00;97579.75;5052122;28;20099;-74
2022/12/13 02:28:49;;;;;;;1999.90;999.90;;;;;;;-3.18;100.00;97589.75;5052174;28;20398;-75
2022/12/13 02:31:21;;;;;;;1999.90;999.90;;;;;;;-3.15;100.00;97582.09;5052122;28;20033;-74
2022/12/13 02:33:52;;;;;;;1999.90;999.90;;;;;;;-3.08;100.00;97590.06;5050547;28;20040;-75
2022/12/13 02:36:31;;;;;;;1999.90;999.90;;;;;;;-2.99;100.00;97594.09;5052257;28;20111;-74
2022/12/13 02:39:07;;;;;;;1999.90;999.90;;;;;;;-3.04;100.00;97596.63;5051806;28;20120;-75
2022/12/13 02:41:40;;;;;;;1999.90;999.90;;;;;;;-3.06;100.00;97599.50;5051953;28;20610;-75
2022/12/13 02:44:08;;;;;;;1999.90;999.90;;;;;;;-3.07;100.00;97605.09;5051732;28;20029;-75
2022/12/13 02:46:39;;;;;;;1999.90;999.90;;;;;;;-3.05;100.00;97592.31;5051863;28;20505;-75
2022/12/13 02:49:08;;;;;;;1999.90;999.90;;;;;;;-3.02;100.00;97597.22;5051950;28;20082;-74
2022/12/13 02:51:35;;;;;;;1999.90;999.90;;;;;;;-2.89;100.00;97597.13;5051791;28;20033;-75
2022/12/13 02:54:00;;;;;;;1999.90;999.90;;;;;;;-2.83;100.00;97593.56;5051655;28;20036;-74
2022/12/13 02:56:26;;;;;;;1999.90;999.90;;;;;;;-2.89;100.00;97594.44;5051582;28;20025;-74
2022/12/13 02:58:55;;;;;;;1999.90;999.90;;;;;;;-2.89;100.00;97594.44;5051437;28;20482;-75
2022/12/13 03:01:40;;;;;;;1999.90;999.90;;;;;;;-2.95;100.00;97587.28;5051318;28;20028;-76
2022/12/13 03:04:19;;;;;;;1999.90;999.90;;;;;;;-2.95;100.00;97590.78;5051512;28;20116;-75
2022/12/13 03:07:06;;;;;;;1999.90;999.90;;;;;;;-2.92;100.00;97579.66;5051820;28;20138;-76
2022/12/13 03:09:58;;;;;;;1999.90;999.90;;;;;;;-2.97;100.00;97575.97;5051375;28;20025;-75
2022/12/13 03:15:33;;;;;;;1999.90;999.90;;;;;;;-3.03;100.00;97577.69;5051817;28;20067;-75
2022/12/13 03:18:14;;;;;;;1999.90;999.90;;;;;;;-2.92;100.00;97589.53;5051146;28;20155;-76
2022/12/13 03:20:43;;;;;;;1999.90;999.90;;;;;;;-2.92;100.00;97576.16;5051027;28;20028;-75
2022/12/13 03:23:10;;;;;;;1999.90;999.90;;;;;;;-2.90;100.00;97580.25;5051085;28;20040;-75
2022/12/13 03:25:36;;;;;;;1999.90;999.90;;;;;;;-2.88;100.00;97570.13;5051055;28;20029;-75
2022/12/13 03:28:01;;;;;;;1999.90;999.90;;;;;;;-2.92;100.00;97576.97;5051110;28;20017;-75
2022/12/13 03:30:26;;;;;;;1999.90;999.90;;;;;;;-2.87;100.00;97589.69;5050883;28;20496;-75
2022/12/13 03:32:52;;;;;;;1999.90;999.90;;;;;;;-2.87;100.00;97578.97;5050984;28;20024;-75
2022/12/13 03:35:17;;;;;;;1999.90;999.90;;;;;;;-2.88;100.00;97585.38;5051619;28;20028;-75
2022/12/13 03:37:43;;;;;;;1999.90;999.90;;;;;;;-2.95;100.00;97581.94;5052742;28;20088;-75
2022/12/13 03:40:09;;;;;;;1999.90;999.90;;;;;;;-2.97;100.00;97576.81;5053065;28;20037;-75
2022/12/13 03:42:34;;;;;;;1999.90;999.90;;;;;;;-2.89;100.00;97567.69;5050755;28;20025;-75
2022/12/13 03:44:59;;;;;;;1999.90;999.90;;;;;;;-2.93;100.00;97578.00;5050088;28;20398;-75
2022/12/13 03:47:24;;;;;;;1999.90;999.90;;;;;;;-2.89;100.00;97575.72;5050442;28;20474;-75
2022/12/13 03:49:50;;;;;;;1999.90;999.90;;;;;;;-2.95;100.00;97568.56;5050647;28;20032;-75
2022/12/13 03:52:15;;;;;;;1999.90;999.90;;;;;;;-2.96;100.00;97566.94;5050800;28;20021;-74
2022/12/13 03:54:40;;;;;;;1999.90;999.90;;;;;;;-2.98;100.00;97561.81;5050474;28;20029;-75
2022/12/13 03:57:06;;;;;;;1999.90;999.90;;;;;;;-2.97;100.00;97570.63;5050704;28;20138;-74
2022/12/13 03:59:31;;;;;;;1999.90;999.90;;;;;;;-3.02;100.00;97565.94;5050496;28;20422;-75
2022/12/13 04:01:56;;;;;;;1999.90;999.90;;;;;;;-3.13;100.00;97547.13;5050623;28;20041;-75
2022/12/13 04:04:21;;;;;;;1999.90;999.90;;;;;;;-3.01;100.00;97558.75;5050404;28;20025;-76
2022/12/13 04:06:47;;;;;;;1999.90;999.90;;;;;;;-2.95;100.00;97558.69;5050870;28;20041;-75
2022/12/13 04:09:12;;;;;;;1999.90;999.90;;;;;;;-2.97;100.00;97559.94;5050544;28;20482;-75
2022/12/13 04:14:21;;;;;;;1999.90;999.90;;;;;;;-3.00;100.00;97555.03;5050414;28;20036;-75
2022/12/13 04:16:47;;;;;;;1999.90;999.90;;;;;;;-3.08;100.00;97557.97;5050416;28;20394;-75
2022/12/13 04:19:12;;;;;;;1999.90;999.90;;;;;;;-3.15;100.00;97549.19;5050231;28;20040;-75
2022/12/13 04:21:37;;;;;;;1999.90;999.90;;;;;;;-3.11;100.00;97555.75;5050123;28;20116;-75
2022/12/13 04:24:03;;;;;;;1999.90;999.90;;;;;;;-3.18;100.00;97544.28;5050254;28;20412;-76
2022/12/13 04:26:28;;;;;;;1999.90;999.90;;;;;;;-3.20;100.00;97549.03;5050335;28;20033;-75
2022/12/13 04:28:54;;;;;;;1999.90;999.90;;;;;;;-3.28;100.00;97553.63;5050005;28;20040;-75
2022/12/13 04:31:19;;;;;;;1999.90;999.90;;;;;;;-3.27;100.00;97539.22;5050365;28;20071;-75
2022/12/13 04:33:44;;;;;;;1999.90;999.90;;;;;;;-3.23;100.00;97550.31;5048931;28;20029;-74
2022/12/13 04:36:10;;;;;;;1999.90;999.90;;;;;;;-3.19;100.00;97550.66;5049258;28;20065;-75
2022/12/13 04:38:35;;;;;;;1999.90;999.90;;;;;;;-3.13;100.00;97550.59;5050272;28;20040;-75
2022/12/13 04:41:12;;;;;;;1999.90;999.90;;;;;;;-3.14;100.00;97550.84;5050150;28;20055;-75
2022/12/13 04:43:37;;;;;;;1999.90;999.90;;;;;;;-2.97;100.00;97551.91;5050982;28;20025;-74
2022/12/13 04:46:02;;;;;;;1999.90;999.90;;;;;;;-2.93;100.00;97550.44;5050177;28;20036;-74
2022/12/13 04:48:27;;;;;;;1999.90;999.90;;;;;;;-2.98;100.00;97559.13;5050096;28;20033;-75
2022/12/13 04:50:53;;;;;;;1999.90;999.90;;;;;;;-2.96;100.00;97538.31;5049831;28;20032;-75
2022/12/13 04:53:18;;;;;;;1999.90;999.90;;;;;;;-2.85;100.00;97558.19;5048891;28;20017;-74
2022/12/13 04:55:43;;;;;;;1999.90;999.90;;;;;;;-2.86;100.00;97552.03;5050227;28;20036;-75
2022/12/13 04:58:09;;;;;;;1999.90;999.90;;;;;;;-2.79;100.00;97536.69;5053877;28;20021;-75
2022/12/13 05:00:34;;;;;;;1999.90;999.90;;;;;;;-2.72;100.00;97544.66;5053623;28;20458;-75
2022/12/13 05:02:59;;;;;;;1999.90;999.90;;;;;;;-2.80;100.00;97534.25;5053723;28;20112;-75
2022/12/13 05:05:24;;;;;;;1999.90;999.90;;;;;;;-2.89;100.00;97541.75;5048810;28;20037;-75
2022/12/13 05:07:50;;;;;;;1999.90;999.90;;;;;;;-2.95;100.00;97518.56;5054703;28;20112;-75
2022/12/13 05:10:15;;;;;;;1999.90;999.90;;;;;;;-2.95;100.00;97515.91;5053444;28;20074;-74
2022/12/13 05:12:41;;;;;;;1999.90;999.90;;;;;;;-2.93;100.00;97523.69;5038003;28;20006;-74
2022/12/13 05:15:06;;;;;;;1999.90;999.90;;;;;;;-2.95;100.00;97521.25;5033248;28;20061;-75
2022/12/13 05:17:32;;;;;;;1999.90;999.90;;;;;;;-3.03;100.00;97507.31;5032005;28;20095;-75
2022/12/13 05:19:58;;;;;;;1999.90;999.90;;;;;;;-2.95;100.00;97531.13;5033110;28;20029;-75
2022/12/13 05:22:23;;;;;;;1999.90;999.90;;;;;;;-2.94;100.00;97524.72;5033166;28;20512;-74
2022/12/13 05:24:48;;;;;;;1999.90;999.90;;;;;;;-2.96;100.00;97521.47;5047660;28;20415;-74
2022/12/13 05:27:14;;;;;;;1999.90;999.90;;;;;;;-3.02;100.00;97519.66;5052833;28;20032;-75
2022/12/13 05:29:39;;;;;;;1999.90;999.90;;;;;;;-3.05;100.00;97522.78;5052854;28;20029;-75
2022/12/13 05:32:05;;;;;;;1999.90;999.90;;;;;;;-3.05;100.00;97517.44;5052785;28;20532;-75
2022/12/13 05:34:30;;;;;;;1999.90;999.90;;;;;;;-3.05;100.00;97504.88;5052778;28;20040;-75
2022/12/13 05:36:55;;;;;;;1999.90;999.90;;;;;;;-3.11;100.00;97520.97;5053189;28;20375;-75
2022/12/13 05:39:21;;;;;;;1999.90;999.90;;;;;;;-3.12;100.00;97519.34;5052790;28;20027;-73
2022/12/13 05:41:46;;;;;;;1999.90;999.90;;;;;;;-3.06;100.00;97513.94;5052508;28;20044;-75
2022/12/13 05:44:13;;;;;;;1999.90;999.90;;;;;;;-3.11;100.00;97520.97;5051268;28;20114;-75
2022/12/13 05:46:39;;;;;;;1999.90;999.90;;;;;;;-3.12;100.00;97514.00;5052904;28;20044;-74
2022/12/13 05:49:04;;;;;;;1999.90;999.90;;;;;;;-3.15;100.00;97514.44;5055110;28;20478;-76
2022/12/13 05:51:30;;;;;;;1999.90;999.90;;;;;;;-3.13;100.00;97507.03;5058809;28;20021;-75
2022/12/13 05:53:55;;;;;;;1999.90;999.90;;;;;;;-3.14;100.00;97514.22;5052590;28;20045;-75
2022/12/13 05:56:20;;;;;;;1999.90;999.90;;;;;;;-3.10;100.00;97507.38;5052329;28;20033;-75
2022/12/13 05:58:46;;;;;;;1999.90;999.90;;;;;;;-3.08;100.00;97509.84;5052350;28;20036;-74
2022/12/13 06:01:15;;;;;;;1999.90;999.90;;;;;;;-3.08;100.00;97507.16;5038844;28;20029;-76
2022/12/13 06:03:41;;;;;;;1999.90;999.90;;;;;;;-3.02;100.00;97520.50;5032702;28;20468;-75
2022/12/13 06:06:08;;;;;;;1999.90;999.90;;;;;;;-3.06;100.00;97518.47;5032779;28;20073;-76
2022/12/13 06:08:33;;;;;;;1999.90;999.90;;;;;;;-3.04;100.00;97513.72;5032224;28;20034;-78
2022/12/13 06:11:02;;;;;;;1999.90;999.90;;;;;;;-2.89;100.00;97516.88;5038475;28;20029;-75
2022/12/13 06:13:27;;;;;;;1999.90;999.90;;;;;;;-2.99;100.00;97527.25;5033424;28;20064;-75
2022/12/13 06:15:53;;;;;;;1999.90;999.90;;;;;;;-2.98;100.00;97531.56;5032488;28;20055;-75
2022/12/13 06:18:19;;;;;;;1999.90;999.90;;;;;;;-3.04;100.00;97527.09;5032114;28;20104;-76
2022/12/13 06:20:46;;;;;;;1999.90;999.90;;;;;;;-3.13;100.00;97523.06;5041724;28;20139;-75
2022/12/13 06:23:11;;;;;;;1999.90;999.90;;;;;;;-3.10;100.00;97534.13;5051498;28;20037;-76
2022/12/13 06:25:36;;;;;;;1999.90;999.90;;;;;;;-3.13;100.00;97502.47;5051682;28;20363;-75
2022/12/13 06:28:02;;;;;;;1999.90;999.90;;;;;;;-2.94;100.00;97524.72;5051840;28;20033;-77
2022/12/13 06:30:29;;;;;;;1999.90;999.90;;;;;;;-2.89;100.00;97523.03;5051961;28;20473;-75
2022/12/13 06:32:55;;;;;;;1999.90;999.90;;;;;;;-2.83;100.00;97524.00;5051765;28;20032;-76
2022/12/13 06:35:20;;;;;;;1999.90;999.90;;;;;;;-2.83;100.00;97524.00;5051880;28;20619;-76
2022/12/13 06:37:45;;;;;;;1999.90;999.90;;;;;;;-2.79;100.00;97526.00;5052165;28;20025;-73
2022/12/13 06:40:11;;;;;;;1999.90;999.90;;;;;;;-2.84;100.00;97530.38;5051220;28;20033;-75
2022/12/13 06:42:36;;;;;;;1999.90;999.90;;;;;;;-2.74;100.00;97544.09;5051571;28;20063;-74
2022/12/13 06:45:02;;;;;;;1999.90;999.90;;;;;;;-2.79;100.00;97535.91;5051299;28;20393;-75
2022/12/13 06:47:27;;;;;;;1999.90;999.90;;;;;;;-2.79;100.00;97531.34;5051255;28;20062;-76
2022/12/13 06:49:53;;;;;;;1999.90;999.90;;;;;;;-2.85;100.00;97542.16;5050667;28;20517;-76
2022/12/13 06:52:18;;;;;;;1999.90;999.90;;;;;;;-2.80;100.00;97539.63;5049796;28;20475;-75
2022/12/13 06:54:43;;;;;;;1999.90;999.90;;;;;;;-2.72;100.00;97552.69;5049293;28;20025;-76
2022/12/13 06:57:10;;;;;;;1999.90;999.90;;;;;;;-2.72;100.00;97550.84;5051209;28;20467;-75
2022/12/13 06:59:35;;;;;;;1999.90;999.90;;;;;;;-2.74;100.00;97538.72;5050214;28;20424;-76
2022/12/13 07:02:01;;;;;;;1999.90;999.90;;;;;;;-2.58;100.00;97554.22;5048296;28;20028;-77
2022/12/13 07:04:26;;;;;;;1999.90;999.90;;;;;;;-2.60;100.00;97566.97;5050314;28;20071;-75
2022/12/13 07:06:52;;;;;;;1999.90;999.90;;;;;;;-2.54;100.00;97555.41;5051162;28;20044;-76
2022/12/13 07:09:17;;;;;;;1999.90;999.90;;;;;;;-2.53;100.00;97564.22;5050646;28;20032;-78
2022/12/13 07:11:42;;;;;;;1999.90;999.90;;;;;;;-2.48;100.00;97567.91;5052906;28;20028;-75
2022/12/13 07:14:11;;;;;;;1999.90;999.90;;;;;;;-2.52;100.00;97561.34;5051023;28;20029;-76
2022/12/13 07:16:36;;;;;;;1999.90;999.90;;;;;;;-2.50;100.00;97561.94;5051185;28;20053;-77
2022/12/13 07:19:03;;;;;;;1999.90;999.90;;;;;;;-2.64;100.00;97559.63;5051009;28;20079;-75
2022/12/13 07:21:29;;;;;;;1999.90;999.90;;;;;;;-2.66;100.00;97565.19;5050490;28;20024;-75
2022/12/13 07:23:55;;;;;;;1999.90;999.90;;;;;;;-2.66;100.00;97577.78;5055328;28;20025;-77
2022/12/13 07:26:20;;;;;;;1999.90;999.90;;;;;;;-2.77;100.00;97576.63;5050894;28;20565;-76
2022/12/13 07:28:46;;;;;;;1999.90;999.90;;;;;;;-2.82;100.00;97585.31;5051067;28;20025;-76
2022/12/13 07:31:14;;;;;;;1999.90;999.90;;;;;;;-2.82;100.00;97582.63;5050999;28;20029;-76
2022/12/13 07:33:40;;;;;;;1999.90;999.90;;;;;;;-2.78;100.00;97580.34;5049966;28;20029;-75
2022/12/13 07:36:12;;;;;;;1999.90;999.90;;;;;;;-2.72;100.00;97574.94;5051728;28;20450;-77
2022/12/13 07:38:38;;;;;;;1999.90;999.90;;;;;;;-2.69;100.00;97579.00;5051345;28;20032;-76
2022/12/13 07:41:04;;;;;;;1999.90;999.90;;;;;;;-2.74;100.00;97577.00;5053219;28;20120;-81
2022/12/13 07:43:30;;;;;;;1999.90;999.90;;;;;;;-2.67;100.00;97593.00;5054473;28;20032;-83
2022/12/13 07:46:04;;;;;;;1999.90;999.90;;;;;;;-2.63;100.00;97594.19;5056437;28;20029;-83
2022/12/13 07:48:32;;;;;;;1999.90;999.90;;;;;;;-2.48;100.00;97597.34;5053945;28;20497;-76
2022/12/13 07:51:03;;;;;;;1999.90;999.90;;;;;;;-2.35;100.00;97591.84;5051482;28;20486;-74
2022/12/13 07:53:29;;;;;;;1999.90;999.90;;;;;;;-2.21;100.00;97579.13;5050818;28;20036;-76
2022/12/13 07:55:54;;;;;;;1999.90;999.90;;;;;;;-2.10;100.00;97582.94;5051648;28;20033;-81
2022/12/13 07:58:20;;;;;;;1999.90;999.90;;;;;;;-1.95;100.00;97576.13;5052585;28;20488;-81
2022/12/13 08:00:45;;;;;;;1999.90;999.90;;;;;;;-1.76;100.00;97579.59;5061362;28;20622;-76
2022/12/13 08:03:12;;;;;;;1999.90;999.90;;;;;;;-1.37;100.00;97576.34;5052891;28;20025;-75
2022/12/13 08:05:38;;;;;;;1999.90;999.90;;;;;;;-0.90;100.00;97571.06;5049011;28;20044;-75
2022/12/13 08:08:06;;;;;;;1999.90;999.90;;;;;;;-0.52;100.00;97582.19;5050475;28;20155;-77
2022/12/13 08:10:32;;;;;;;1999.90;999.90;;;;;;;-0.51;100.00;97586.50;5050610;28;20024;-75
2022/12/13 08:12:58;;;;;;;1999.90;999.90;;;;;;;-0.62;100.00;97582.75;5050722;28;20393;-76
2022/12/13 08:15:24;;;;;;;1999.90;999.90;;;;;;;-0.81;100.00;97578.56;5050743;28;20512;-75
2022/12/13 08:17:50;;;;;;;1999.90;999.90;;;;;;;-0.82;100.00;97581.50;5051936;28;20463;-77
2022/12/13 08:20:16;;;;;;;1999.90;999.90;;;;;;;-0.96;100.00;97574.69;5050846;28;20098;-76
2022/12/13 08:22:42;;;;;;;1999.90;999.90;;;;;;;-1.11;100.00;97584.00;5053102;28;20060;-82
2022/12/13 08:25:07;;;;;;;1999.90;999.90;;;;;;;-1.11;100.00;97577.81;5051799;28;20470;-75
2022/12/13 08:27:33;;;;;;;1999.90;999.90;;;;;;;-1.08;100.00;97578.19;5050382;28;20555;-76
2022/12/13 08:29:58;;;;;;;1999.90;999.90;;;;;;;-1.09;100.00;97571.19;5050359;28;20544;-75
2022/12/13 08:32:24;;;;;;;1999.90;999.90;;;;;;;-1.10;100.00;97582.94;5052475;28;20044;-76
2022/12/13 08:34:49;;;;;;;1999.90;999.90;;;;;;;-1.17;100.00;97590.31;5053879;28;20415;-75
2022/12/13 08:37:15;;;;;;;1999.90;999.90;;;;;;;-1.23;100.00;97585.84;5054282;28;20021;-75
2022/12/13 08:39:41;;;;;;;1999.90;999.90;;;;;;;-1.10;100.00;97580.25;5054190;28;20427;-74
2022/12/13 08:42:12;;;;;;;1999.90;999.90;;;;;;;-1.03;100.00;97582.06;5054091;28;20031;-75
2022/12/13 08:44:37;;;;;;;1999.90;999.90;;;;;;;-1.01;100.00;97585.31;5054079;28;20029;-75
2022/12/13 08:47:03;;;;;;;1999.90;999.90;;;;;;;-1.05;100.00;97581.44;5054155;28;20540;-75
2022/12/13 08:49:28;;;;;;;1999.90;999.90;;;;;;;-0.96;100.00;97578.19;5053910;28;20025;-74
2022/12/13 08:51:53;;;;;;;1999.90;999.90;;;;;;;-0.84;100.00;97580.88;5054031;28;20056;-75
2022/12/13 08:54:18;;;;;;;1999.90;999.90;;;;;;;-0.73;100.00;97574.72;5052591;28;20143;-75
2022/12/13 08:56:44;;;;;;;1999.90;999.90;;;;;;;-0.67;100.00;97587.22;5053934;28;20108;-75
2022/12/13 08:59:09;;;;;;;1999.90;999.90;;;;;;;-0.65;100.00;97583.22;5053944;28;20074;-74
2022/12/13 09:01:34;;;;;;;1999.90;999.90;;;;;;;-0.20;100.00;97580.75;5053804;28;20067;-75
2022/12/13 09:04:00;;;;;;;1999.90;999.90;;;;;;;-0.57;100.00;97595.50;5053695;28;20060;-75
2022/12/13 09:06:25;;;;;;;1999.90;999.90;;;;;;;-0.63;100.00;97585.69;5053851;28;20068;-74
2022/12/13 09:08:54;;;;;;;1999.90;999.90;;;;;;;-0.66;100.00;97586.16;5054625;28;20041;-74
2022/12/13 09:11:20;;;;;;;1999.90;999.90;;;;;;;-0.98;100.00;97582.97;5054076;28;20049;-75
2022/12/13 09:13:45;;;;;;;1999.90;999.90;;;;;;;-1.11;100.00;97586.69;5052677;28;20025;-75
2022/12/13 09:16:14;;;;;;;1999.90;999.90;;;;;;;-0.98;100.00;97582.97;5053998;28;20045;-75
2022/12/13 09:18:40;;;;;;;1999.90;999.90;;;;;;;-1.03;100.00;97574.78;5053468;28;20021;-76
2022/12/13 09:21:08;;;;;;;1999.90;999.90;;;;;;;-0.92;100.00;97582.06;5053546;28;20371;-74
2022/12/13 09:23:33;;;;;;;1999.90;999.90;;;;;;;-0.87;100.00;97584.84;5052403;28;20451;-74
2022/12/13 09:26:00;;;;;;;1999.90;999.90;;;;;;;-0.75;100.00;97572.25;5053515;28;20108;-74
2022/12/13 09:28:26;;;;;;;1999.90;999.90;;;;;;;-0.75;100.00;97571.47;5053321;28;20035;-75
2022/12/13 09:30:52;;;;;;;1999.90;999.90;;;;;;;-0.89;100.00;97576.22;5053735;28;20025;-74
2022/12/13 09:33:17;;;;;;;1999.90;999.90;;;;;;;-0.95;100.00;97573.66;5053466;28;20091;-76
2022/12/13 09:35:43;;;;;;;1999.90;999.90;;;;;;;-0.92;100.00;97570.50;5053295;28;20391;-76
2022/12/13 09:38:08;;;;;;;1999.90;999.90;;;;;;;-0.92;100.00;97565.94;5053240;28;20041;-75
2022/12/13 09:40:37;;;;;;;1999.90;999.90;;;;;;;-0.78;100.00;97567.34;5053090;28;20041;-75
2022/12/13 09:43:04;;;;;;;1999.90;999.90;;;;;;;-0.80;100.00;97548.00;5051932;28;20108;-74
2022/12/13 09:45:29;;;;;;;1999.90;999.90;;;;;;;-0.82;100.00;97551.97;5052903;28;20071;-75
2022/12/13 09:47:55;;;;;;;1999.90;999.90;;;;;;;-0.76;100.00;97551.84;5053011;28;20128;-75
2022/12/13 09:50:29;;;;;;;1999.90;999.90;;;;;;;-0.57;100.00;97547.16;5052907;28;20348;-76
2022/12/13 09:52:56;;;;;;;1999.90;999.90;;;;;;;-0.49;100.00;97538.75;5052918;28;20025;-75
2022/12/13 09:55:24;;;;;;;1999.90;999.90;;;;;;;-0.31;100.00;97541.28;5052820;28;20474;-74
2022/12/13 09:57:51;;;;;;;1999.90;999.90;;;;;;;-0.33;100.00;97535.34;5052883;28;20025;-74
2022/12/13 10:00:19;;;;;;;1999.90;999.90;;;;;;;-0.28;100.00;97537.31;5052621;28;20588;-75
2022/12/13 10:02:47;;;;;;;1999.90;999.90;;;;;;;-0.29;100.00;97547.25;5052608;28;20059;-75
2022/12/13 10:05:37;;;;;;;1999.90;999.90;;;;;;;-0.44;100.00;97535.38;5052498;28;20041;-77
2022/12/13 10:08:11;;;;;;;1999.90;999.90;;;;;;;-0.51;100.00;97527.44;5053461;28;20040;-76
2022/12/13 10:10:37;;;;;;;1999.90;999.90;;;;;;;-0.50;100.00;97531.72;5058395;28;20103;-76
2022/12/13 10:13:18;;;;;;;1999.90;999.90;;;;;;;-0.42;100.00;97528.69;5055934;28;20028;-77
2022/12/13 10:15:49;;;;;;;1999.90;999.90;;;;;;;-0.25;100.00;97523.41;5052515;28;20060;-75
2022/12/13 10:18:23;;;;;;;1999.90;999.90;;;;;;;-0.18;100.00;97526.78;5052393;28;20025;-76
2022/12/13 10:20:49;;;;;;;1999.90;999.90;;;;;;;-0.44;100.00;97530.81;5052109;28;20139;-75
2022/12/13 10:23:15;;;;;;;1999.90;999.90;;;;;;;-0.44;100.00;97520.06;5052133;28;20033;-77
2022/12/13 10:25:47;;;;;;;1999.90;999.90;;;;;;;-0.29;100.00;97527.63;5052348;28;20531;-75
2022/12/13 10:28:16;;;;;;;1999.90;999.90;;;;;;;-0.06;100.00;97523.00;5052199;28;20402;-75
2022/12/13 10:30:43;;;;;;;1999.90;999.90;;;;;;;0.07;100.00;97521.91;5052306;28;20359;-75
2022/12/13 10:33:20;;;;;;;1999.90;999.90;;;;;;;0.18;100.00;97520.25;5052304;28;20036;-75
2022/12/13 10:36:20;;;;;;;1999.90;999.90;;;;;;;0.14;100.00;97517.22;5052022;28;20060;-76
2022/12/13 10:38:45;;;;;;;1999.90;999.90;;;;;;;0.06;100.00;97516.78;5044592;28;20572;-77
2022/12/13 10:41:36;;;;;;;1999.90;999.90;;;;;;;0.03;100.00;97515.41;5051889;28;20029;-74
2022/12/13 10:44:15;;;;;;;1999.90;999.90;;;;;;;0.03;100.00;97503.81;5051732;28;20078;-76
2022/12/13 10:46:48;;;;;;;1999.90;999.90;;;;;;;0.08;100.00;97495.84;5051867;28;20025;-75
2022/12/13 10:49:22;;;;;;;1999.90;999.90;;;;;;;0.22;100.00;97507.97;5051762;28;20501;-75
2022/12/13 10:51:50;;;;;;;1999.90;999.90;;;;;;;0.27;100.00;97505.34;5051830;28;20025;-78
2022/12/13 10:54:25;;;;;;;1999.90;999.90;;;;;;;0.34;100.00;97500.66;5051639;28;20016;-76
2022/12/13 10:56:54;;;;;;;1999.90;999.90;;;;;;;0.45;100.00;97499.75;5051690;28;20385;-78